createdAt,value
2016-12-19T00:00:52.642Z,977.88
2016-12-19T00:01:52.634Z,977.85
2016-12-19T00:02:52.630Z,977.88
2016-12-19T00:03:52.626Z,977.85
2016-12-19T00:04:52.618Z,977.87
2016-12-19T00:05:52.615Z,977.8
2016-12-19T00:06:52.610Z,977.85
2016-12-19T00:07:52.610Z,977.87
2016-12-19T00:08:52.606Z,977.85
2016-12-19T00:09:52.603Z,977.85
2016-12-19T00:10:52.594Z,977.85
2016-12-19T00:11:52.595Z,977.81
2016-12-19T00:12:52.586Z,977.81
2016-12-19T00:13:52.583Z,977.81
2016-12-19T00:14:52.578Z,977.81
2016-12-19T00:15:52.571Z,977.81
2016-12-19T00:16:52.567Z,977.8
2016-12-19T00:17:52.562Z,977.75
2016-12-19T00:18:52.559Z,977.69
2016-12-19T00:19:52.566Z,977.7
2016-12-19T00:20:52.555Z,977.71
2016-12-19T00:21:52.547Z,977.68
2016-12-19T00:22:52.542Z,977.68
2016-12-19T00:23:52.535Z,977.68
2016-12-19T00:24:52.531Z,977.61
2016-12-19T00:25:52.529Z,977.64
2016-12-19T00:26:52.523Z,977.61
2016-12-19T00:27:52.523Z,977.61
2016-12-19T00:28:52.519Z,977.61
2016-12-19T00:29:52.515Z,977.58
2016-12-19T00:30:52.507Z,977.58
2016-12-19T00:31:52.503Z,977.58
2016-12-19T00:32:52.495Z,977.58
2016-12-19T00:33:52.496Z,977.57
2016-12-19T00:34:52.488Z,977.57
2016-12-19T00:35:52.487Z,977.56
2016-12-19T00:36:52.484Z,977.56
2016-12-19T00:37:52.480Z,977.52
2016-12-19T00:38:52.475Z,977.54
2016-12-19T00:39:52.471Z,977.55
2016-12-19T00:40:52.464Z,977.58
2016-12-19T00:41:52.460Z,977.56
2016-12-19T00:42:52.455Z,977.59
2016-12-19T00:43:52.451Z,977.56
2016-12-19T00:44:52.448Z,977.59
2016-12-19T00:45:52.440Z,977.58
2016-12-19T00:46:52.436Z,977.52
2016-12-19T00:47:52.432Z,977.57
2016-12-19T00:48:52.428Z,977.53
2016-12-19T00:49:52.428Z,977.53
2016-12-19T00:50:52.424Z,977.49
2016-12-19T00:51:52.412Z,977.5
2016-12-19T00:52:52.408Z,977.46
2016-12-19T00:53:52.404Z,977.45
2016-12-19T00:54:52.404Z,977.48
2016-12-19T00:55:52.400Z,977.51
2016-12-19T00:56:52.396Z,977.43
2016-12-19T00:57:52.392Z,977.45
2016-12-19T00:58:52.384Z,977.42
2016-12-19T00:59:52.380Z,977.41
2016-12-19T01:00:52.376Z,977.37
2016-12-19T01:01:52.372Z,977.36
2016-12-19T01:02:52.368Z,977.36
2016-12-19T01:03:52.360Z,977.35
2016-12-19T01:04:52.357Z,977.32
2016-12-19T01:05:52.357Z,977.31
2016-12-19T01:06:52.352Z,977.33
2016-12-19T01:07:52.549Z,977.35
2016-12-19T01:08:52.337Z,977.3
2016-12-19T01:09:52.333Z,977.31
2016-12-19T01:10:52.333Z,977.28
2016-12-19T01:11:52.328Z,977.28
2016-12-19T01:12:52.325Z,977.28
2016-12-19T01:13:52.320Z,977.28
2016-12-19T01:14:52.313Z,977.25
2016-12-19T01:15:52.309Z,977.22
2016-12-19T01:16:52.308Z,977.29
2016-12-19T01:17:52.301Z,977.27
2016-12-19T01:18:52.294Z,977.26
2016-12-19T01:19:52.289Z,977.2
2016-12-19T01:20:52.289Z,977.19
2016-12-19T01:21:52.285Z,977.22
2016-12-19T01:22:52.282Z,977.23
2016-12-19T01:23:52.273Z,977.19
2016-12-19T01:24:52.273Z,977.24
2016-12-19T01:25:52.269Z,977.16
2016-12-19T01:26:52.261Z,977.2
2016-12-19T01:27:52.253Z,977.17
2016-12-19T01:28:52.249Z,977.12
2016-12-19T01:29:52.245Z,977.14
2016-12-19T01:30:52.245Z,977.11
2016-12-19T01:31:52.241Z,977.11
2016-12-19T01:32:52.233Z,977.09
2016-12-19T01:33:52.234Z,977.11
2016-12-19T01:34:52.225Z,977.1
2016-12-19T01:35:52.225Z,977.05
2016-12-19T01:36:52.218Z,977.06
2016-12-19T01:37:52.209Z,977.04
2016-12-19T01:38:52.205Z,977.02
2016-12-19T01:39:52.205Z,977.05
2016-12-19T01:40:52.201Z,977
2016-12-19T01:41:52.197Z,977.03
2016-12-19T01:42:52.193Z,976.97
2016-12-19T01:43:52.186Z,976.96
2016-12-19T01:44:52.182Z,976.93
2016-12-19T01:45:52.178Z,976.94
2016-12-19T01:46:52.170Z,976.9
2016-12-19T01:47:52.170Z,976.86
2016-12-19T01:48:52.166Z,976.85
2016-12-19T01:49:52.162Z,976.86
2016-12-19T01:50:52.150Z,976.84
2016-12-19T01:51:52.150Z,976.82
2016-12-19T01:52:52.146Z,976.79
2016-12-19T01:53:52.142Z,976.81
2016-12-19T01:54:52.134Z,976.79
2016-12-19T01:55:52.134Z,976.77
2016-12-19T01:56:52.130Z,976.73
2016-12-19T01:57:52.126Z,976.74
2016-12-19T01:58:52.114Z,976.69
2016-12-19T01:59:52.114Z,976.71
2016-12-19T02:00:52.110Z,976.74
2016-12-19T02:01:52.106Z,976.64
2016-12-19T02:02:52.102Z,976.63
2016-12-19T02:03:52.094Z,976.61
2016-12-19T02:04:52.094Z,976.62
2016-12-19T02:05:52.089Z,976.59
2016-12-19T02:06:52.078Z,976.56
2016-12-19T02:07:52.080Z,976.55
2016-12-19T02:08:52.075Z,976.53
2016-12-19T02:09:52.070Z,976.54
2016-12-19T02:10:52.063Z,976.49
2016-12-19T02:11:52.059Z,976.5
2016-12-19T02:12:52.059Z,976.49
2016-12-19T02:13:52.050Z,976.46
2016-12-19T02:14:52.042Z,976.46
2016-12-19T02:15:52.046Z,976.47
2016-12-19T02:16:52.038Z,976.39
2016-12-19T02:17:52.031Z,976.38
2016-12-19T02:18:52.027Z,976.35
2016-12-19T02:19:52.026Z,976.31
2016-12-19T02:20:52.023Z,976.23
2016-12-19T02:21:52.011Z,976.31
2016-12-19T02:22:52.007Z,976.23
2016-12-19T02:23:52.009Z,976.19
2016-12-19T02:24:52.002Z,976.21
2016-12-19T02:25:51.995Z,976.27
2016-12-19T02:26:51.994Z,976.23
2016-12-19T02:27:51.991Z,976.27
2016-12-19T02:28:51.979Z,976.3
2016-12-19T02:29:51.975Z,976.28
2016-12-19T02:30:51.975Z,976.23
2016-12-19T02:31:51.971Z,976.23
2016-12-19T02:32:51.964Z,976.26
2016-12-19T02:33:51.963Z,976.27
2016-12-19T02:34:51.959Z,976.24
2016-12-19T02:35:51.947Z,976.2
2016-12-19T02:36:51.943Z,976.18
2016-12-19T02:37:51.943Z,976.26
2016-12-19T02:38:51.939Z,976.24
2016-12-19T02:39:51.931Z,976.3
2016-12-19T02:40:51.931Z,976.28
2016-12-19T02:41:51.927Z,976.3
2016-12-19T02:42:51.915Z,976.29
2016-12-19T02:43:51.915Z,976.23
2016-12-19T02:44:51.911Z,976.23
2016-12-19T02:45:51.907Z,976.27
2016-12-19T02:46:51.900Z,976.19
2016-12-19T02:47:51.900Z,976.19
2016-12-19T02:48:51.896Z,976.21
2016-12-19T02:49:51.884Z,976.22
2016-12-19T02:50:51.884Z,976.2
2016-12-19T02:51:51.880Z,976.2
2016-12-19T02:52:51.876Z,976.14
2016-12-19T02:53:51.872Z,976.14
2016-12-19T02:54:51.868Z,976.19
2016-12-19T02:55:51.864Z,976.17
2016-12-19T02:56:51.856Z,976.14
2016-12-19T02:57:51.856Z,976.12
2016-12-19T02:58:51.848Z,976.12
2016-12-19T02:59:51.843Z,976.13
2016-12-19T03:00:51.836Z,976.14
2016-12-19T03:01:51.836Z,976.1
2016-12-19T03:02:51.832Z,976.06
2016-12-19T03:03:51.828Z,976.04
2016-12-19T03:04:51.824Z,976.02
2016-12-19T03:05:51.816Z,975.98
2016-12-19T03:06:51.812Z,975.98
2016-12-19T03:07:51.808Z,975.96
2016-12-19T03:08:51.804Z,975.95
2016-12-19T03:09:51.800Z,975.85
2016-12-19T03:10:51.796Z,975.86
2016-12-19T03:11:51.788Z,975.87
2016-12-19T03:12:51.784Z,975.81
2016-12-19T03:13:51.780Z,975.82
2016-12-19T03:14:51.776Z,975.81
2016-12-19T03:15:51.768Z,975.79
2016-12-19T03:16:51.768Z,975.79
2016-12-19T03:17:51.764Z,975.82
2016-12-19T03:18:51.754Z,975.77
2016-12-19T03:19:51.752Z,975.75
2016-12-19T03:20:51.752Z,975.75
2016-12-19T03:21:51.741Z,975.77
2016-12-19T03:22:51.740Z,975.75
2016-12-19T03:23:51.737Z,975.71
2016-12-19T03:24:51.732Z,975.64
2016-12-19T03:25:51.725Z,975.66
2016-12-19T03:26:51.720Z,975.61
2016-12-19T03:27:51.713Z,975.68
2016-12-19T03:28:51.709Z,975.61
2016-12-19T03:29:51.709Z,975.62
2016-12-19T03:30:51.701Z,975.59
2016-12-19T03:31:51.700Z,975.64
2016-12-19T03:32:51.693Z,975.56
2016-12-19T03:33:51.685Z,975.54
2016-12-19T03:34:51.684Z,975.52
2016-12-19T03:35:51.680Z,975.5
2016-12-19T03:36:51.697Z,975.5
2016-12-19T03:37:51.673Z,975.5
2016-12-19T03:38:51.665Z,975.48
2016-12-19T03:39:51.661Z,975.43
2016-12-19T03:40:51.657Z,975.44
2016-12-19T03:41:51.649Z,975.45
2016-12-19T03:42:51.649Z,975.4
2016-12-19T03:43:51.646Z,975.35
2016-12-19T03:44:51.633Z,975.29
2016-12-19T03:45:51.633Z,975.37
2016-12-19T03:46:51.629Z,975.33
2016-12-19T03:47:51.621Z,975.34
2016-12-19T03:48:51.621Z,975.26
2016-12-19T03:49:51.617Z,975.3
2016-12-19T03:50:51.613Z,975.25
2016-12-19T03:51:51.605Z,975.25
2016-12-19T03:52:51.598Z,975.27
2016-12-19T03:53:51.598Z,975.21
2016-12-19T03:54:51.593Z,975.21
2016-12-19T03:55:51.586Z,975.24
2016-12-19T03:56:51.586Z,975.21
2016-12-19T03:57:51.577Z,975.12
2016-12-19T03:58:51.569Z,975.13
2016-12-19T03:59:51.569Z,975.08
2016-12-19T04:00:51.565Z,975.11
2016-12-19T04:01:51.558Z,975.1
2016-12-19T04:02:51.558Z,975.12
2016-12-19T04:03:51.546Z,975.12
2016-12-19T04:04:51.546Z,975.08
2016-12-19T04:05:51.541Z,975.11
2016-12-19T04:06:51.538Z,975.14
2016-12-19T04:07:51.534Z,975.07
2016-12-19T04:08:51.530Z,975.04
2016-12-19T04:09:51.522Z,975.01
2016-12-19T04:10:51.518Z,975.03
2016-12-19T04:11:51.510Z,975.03
2016-12-19T04:12:51.510Z,974.98
2016-12-19T04:13:51.506Z,975.04
2016-12-19T04:14:51.498Z,974.99
2016-12-19T04:15:51.494Z,974.99
2016-12-19T04:16:51.486Z,975.03
2016-12-19T04:17:51.486Z,975
2016-12-19T04:18:51.482Z,975.01
2016-12-19T04:19:51.478Z,974.95
2016-12-19T04:20:51.470Z,974.99
2016-12-19T04:21:51.462Z,974.97
2016-12-19T04:22:51.462Z,974.95
2016-12-19T04:23:51.459Z,974.94
2016-12-19T04:24:51.451Z,974.89
2016-12-19T04:25:51.450Z,974.83
2016-12-19T04:26:51.446Z,974.83
2016-12-19T04:27:51.438Z,974.8
2016-12-19T04:28:51.435Z,974.79
2016-12-19T04:29:51.431Z,974.73
2016-12-19T04:30:51.426Z,974.72
2016-12-19T04:31:51.419Z,974.72
2016-12-19T04:32:51.414Z,974.64
2016-12-19T04:33:51.415Z,974.69
2016-12-19T04:34:51.407Z,974.63
2016-12-19T04:35:51.403Z,974.66
2016-12-19T04:36:51.395Z,974.68
2016-12-19T04:37:51.395Z,974.62
2016-12-19T04:38:51.392Z,974.65
2016-12-19T04:39:51.387Z,974.61
2016-12-19T04:40:51.383Z,974.67
2016-12-19T04:41:51.375Z,974.65
2016-12-19T04:42:51.371Z,974.59
2016-12-19T04:43:51.367Z,974.62
2016-12-19T04:44:51.366Z,974.62
2016-12-19T04:45:51.359Z,974.61
2016-12-19T04:46:51.347Z,974.67
2016-12-19T04:47:51.347Z,974.63
2016-12-19T04:48:51.339Z,974.62
2016-12-19T04:49:51.339Z,974.63
2016-12-19T04:50:51.335Z,974.59
2016-12-19T04:51:51.329Z,974.59
2016-12-19T04:52:51.327Z,974.56
2016-12-19T04:53:51.315Z,974.63
2016-12-19T04:54:51.316Z,974.66
2016-12-19T04:55:51.312Z,974.62
2016-12-19T04:56:51.307Z,974.69
2016-12-19T04:57:51.299Z,974.66
2016-12-19T04:58:51.292Z,974.64
2016-12-19T04:59:51.292Z,974.59
2016-12-19T05:00:51.284Z,974.63
2016-12-19T05:01:51.284Z,974.65
2016-12-19T05:02:51.281Z,974.68
2016-12-19T05:03:51.276Z,974.71
2016-12-19T05:04:51.268Z,974.67
2016-12-19T05:05:51.260Z,974.69
2016-12-19T05:06:51.260Z,974.76
2016-12-19T05:07:51.256Z,974.72
2016-12-19T05:08:51.252Z,974.73
2016-12-19T05:09:51.244Z,974.71
2016-12-19T05:10:51.240Z,974.72
2016-12-19T05:11:51.236Z,974.67
2016-12-19T05:12:51.232Z,974.72
2016-12-19T05:13:51.228Z,974.72
2016-12-19T05:14:51.221Z,974.74
2016-12-19T05:15:51.228Z,974.7
2016-12-19T05:16:51.213Z,974.7
2016-12-19T05:17:51.208Z,974.71
2016-12-19T05:18:51.201Z,974.71
2016-12-19T05:19:51.201Z,974.76
2016-12-19T05:20:51.192Z,974.7
2016-12-19T05:21:51.186Z,974.73
2016-12-19T05:22:51.185Z,974.77
2016-12-19T05:23:51.425Z,974.8
2016-12-19T05:24:51.177Z,974.75
2016-12-19T05:25:51.169Z,974.73
2016-12-19T05:26:51.164Z,974.77
2016-12-19T05:27:51.157Z,974.72
2016-12-19T05:28:51.157Z,974.73
2016-12-19T05:29:51.153Z,974.67
2016-12-19T05:30:51.149Z,974.66
2016-12-19T05:31:51.141Z,974.62
2016-12-19T05:32:51.137Z,974.54
2016-12-19T05:33:51.133Z,974.55
2016-12-19T05:34:51.129Z,974.52
2016-12-19T05:35:51.125Z,974.49
2016-12-19T05:36:51.118Z,974.52
2016-12-19T05:37:51.113Z,974.56
2016-12-19T05:38:51.105Z,974.55
2016-12-19T05:39:51.106Z,974.54
2016-12-19T05:40:51.098Z,974.59
2016-12-19T05:41:51.097Z,974.47
2016-12-19T05:42:51.086Z,974.45
2016-12-19T05:43:51.085Z,974.48
2016-12-19T05:44:51.082Z,974.45
2016-12-19T05:45:51.078Z,974.44
2016-12-19T05:46:51.074Z,974.41
2016-12-19T05:47:51.066Z,974.37
2016-12-19T05:48:51.062Z,974.42
2016-12-19T05:49:51.058Z,974.29
2016-12-19T05:50:51.053Z,974.23
2016-12-19T05:51:51.046Z,974.28
2016-12-19T05:52:51.046Z,974.25
2016-12-19T05:53:51.034Z,974.3
2016-12-19T05:54:51.033Z,974.23
2016-12-19T05:55:51.029Z,974.17
2016-12-19T05:56:51.026Z,974.09
2016-12-19T05:57:51.039Z,973.98
2016-12-19T05:58:51.014Z,973.93
2016-12-19T05:59:51.009Z,973.8
2016-12-19T06:00:51.002Z,973.69
2016-12-19T06:01:51.001Z,973.66
2016-12-19T06:02:50.997Z,973.77
2016-12-19T06:03:50.994Z,973.69
2016-12-19T06:04:50.989Z,973.72
2016-12-19T06:05:50.981Z,973.79
2016-12-19T06:06:50.977Z,973.75
2016-12-19T06:07:50.969Z,973.8
2016-12-19T06:08:50.969Z,973.83
2016-12-19T06:09:50.964Z,973.99
2016-12-19T06:10:50.961Z,973.87
2016-12-19T06:11:50.953Z,973.88
2016-12-19T06:12:50.949Z,973.89
2016-12-19T06:13:50.945Z,973.86
2016-12-19T06:14:50.937Z,973.79
2016-12-19T06:15:50.937Z,973.84
2016-12-19T06:16:50.929Z,973.89
2016-12-19T06:17:50.925Z,973.87
2016-12-19T06:18:50.917Z,973.89
2016-12-19T06:19:50.916Z,973.9
2016-12-19T06:20:50.913Z,973.94
2016-12-19T06:21:50.908Z,973.83
2016-12-19T06:22:50.897Z,973.89
2016-12-19T06:23:50.897Z,973.84
2016-12-19T06:24:50.892Z,973.84
2016-12-19T06:25:50.889Z,973.83
2016-12-19T06:26:50.881Z,973.8
2016-12-19T06:27:50.881Z,973.74
2016-12-19T06:28:50.873Z,973.76
2016-12-19T06:29:50.869Z,973.67
2016-12-19T06:30:50.861Z,973.73
2016-12-19T06:31:50.861Z,973.73
2016-12-19T06:32:50.849Z,973.69
2016-12-19T06:33:50.848Z,973.73
2016-12-19T06:34:50.841Z,973.72
2016-12-19T06:35:50.841Z,973.75
2016-12-19T06:36:50.837Z,973.75
2016-12-19T06:37:50.825Z,973.77
2016-12-19T06:38:50.825Z,973.87
2016-12-19T06:39:50.817Z,973.87
2016-12-19T06:40:50.816Z,973.87
2016-12-19T06:41:50.809Z,973.8
2016-12-19T06:42:50.812Z,973.76
2016-12-19T06:43:50.801Z,973.75
2016-12-19T06:44:50.797Z,973.76
2016-12-19T06:45:50.793Z,973.77
2016-12-19T06:46:50.781Z,973.76
2016-12-19T06:47:50.781Z,973.73
2016-12-19T06:48:50.773Z,973.67
2016-12-19T06:49:50.773Z,973.76
2016-12-19T06:50:50.769Z,973.69
2016-12-19T06:51:50.757Z,973.86
2016-12-19T06:52:50.757Z,973.74
2016-12-19T06:53:50.749Z,973.73
2016-12-19T06:54:50.749Z,973.71
2016-12-19T06:55:50.745Z,973.73
2016-12-19T06:56:50.733Z,973.71
2016-12-19T06:57:50.733Z,973.73
2016-12-19T06:58:50.726Z,973.69
2016-12-19T06:59:50.725Z,973.73
2016-12-19T07:00:50.722Z,973.6
2016-12-19T07:01:50.710Z,973.74
2016-12-19T07:02:50.710Z,973.77
2016-12-19T07:03:50.706Z,973.69
2016-12-19T07:04:50.701Z,973.77
2016-12-19T07:05:50.694Z,973.74
2016-12-19T07:06:50.686Z,973.74
2016-12-19T07:07:50.686Z,973.81
2016-12-19T07:08:50.678Z,973.79
2016-12-19T07:09:50.670Z,973.78
2016-12-19T07:10:50.670Z,973.76
2016-12-19T07:11:50.666Z,973.8
2016-12-19T07:12:50.662Z,973.86
2016-12-19T07:13:50.661Z,973.83
2016-12-19T07:14:50.646Z,973.92
2016-12-19T07:15:50.646Z,973.75
2016-12-19T07:16:50.642Z,973.81
2016-12-19T07:17:50.638Z,973.79
2016-12-19T07:18:50.635Z,973.83
2016-12-19T07:19:50.627Z,973.83
2016-12-19T07:20:50.623Z,973.86
2016-12-19T07:21:50.619Z,973.85
2016-12-19T07:22:50.611Z,973.77
2016-12-19T07:23:50.607Z,973.79
2016-12-19T07:24:50.603Z,973.84
2016-12-19T07:25:50.595Z,973.77
2016-12-19T07:26:50.595Z,973.79
2016-12-19T07:27:50.587Z,973.73
2016-12-19T07:28:50.583Z,973.77
2016-12-19T07:29:50.579Z,973.76
2016-12-19T07:30:50.571Z,973.76
2016-12-19T07:31:50.567Z,973.76
2016-12-19T07:32:50.563Z,973.72
2016-12-19T07:33:50.556Z,973.7
2016-12-19T07:34:50.555Z,973.68
2016-12-19T07:35:50.547Z,973.71
2016-12-19T07:36:50.543Z,973.64
2016-12-19T07:37:50.540Z,973.65
2016-12-19T07:38:50.532Z,973.66
2016-12-19T07:39:50.531Z,973.59
2016-12-19T07:40:50.524Z,973.61
2016-12-19T07:41:50.520Z,973.63
2016-12-19T07:42:50.516Z,973.66
2016-12-19T07:43:50.508Z,973.61
2016-12-19T07:44:50.508Z,973.63
2016-12-19T07:45:50.500Z,973.64
2016-12-19T07:46:50.496Z,973.63
2016-12-19T07:47:50.492Z,973.6
2016-12-19T07:48:50.488Z,973.68
2016-12-19T07:49:50.484Z,973.61
2016-12-19T07:50:50.480Z,973.72
2016-12-19T07:51:50.476Z,973.68
2016-12-19T07:52:50.492Z,973.7
2016-12-19T07:53:50.464Z,973.71
2016-12-19T07:54:50.456Z,973.7
2016-12-19T07:55:50.456Z,973.66
2016-12-19T07:56:50.449Z,973.71
2016-12-19T07:57:50.444Z,973.65
2016-12-19T07:58:50.437Z,973.69
2016-12-19T07:59:50.436Z,973.73
2016-12-19T08:00:50.429Z,973.72
2016-12-19T08:01:50.427Z,973.74
2016-12-19T08:02:50.421Z,973.72
2016-12-19T08:03:50.416Z,973.73
2016-12-19T08:04:50.413Z,973.72
2016-12-19T08:05:50.409Z,973.7
2016-12-19T08:06:50.405Z,973.68
2016-12-19T08:07:50.397Z,973.66
2016-12-19T08:08:50.393Z,973.64
2016-12-19T08:09:50.389Z,973.63
2016-12-19T08:10:50.381Z,973.65
2016-12-19T08:11:50.381Z,973.6
2016-12-19T08:12:50.373Z,973.62
2016-12-19T08:13:50.369Z,973.52
2016-12-19T08:14:50.361Z,973.52
2016-12-19T08:15:50.361Z,973.47
2016-12-19T08:16:50.357Z,973.44
2016-12-19T08:17:50.353Z,973.45
2016-12-19T08:18:50.345Z,973.42
2016-12-19T08:19:50.342Z,973.45
2016-12-19T08:20:50.337Z,973.5
2016-12-19T08:21:50.333Z,973.46
2016-12-19T08:22:50.332Z,973.48
2016-12-19T08:23:50.321Z,973.45
2016-12-19T08:24:50.317Z,973.53
2016-12-19T08:25:50.314Z,973.53
2016-12-19T08:26:50.310Z,973.49
2016-12-19T08:27:50.306Z,973.47
2016-12-19T08:28:50.302Z,973.48
2016-12-19T08:29:50.293Z,973.53
2016-12-19T08:30:50.286Z,973.51
2016-12-19T08:31:50.286Z,973.53
2016-12-19T08:32:50.282Z,973.51
2016-12-19T08:33:50.274Z,973.44
2016-12-19T08:34:50.274Z,973.47
2016-12-19T08:35:50.270Z,973.43
2016-12-19T08:36:50.262Z,973.47
2016-12-19T08:37:50.254Z,973.45
2016-12-19T08:38:50.250Z,973.44
2016-12-19T08:39:50.251Z,973.46
2016-12-19T08:40:50.246Z,973.44
2016-12-19T08:41:50.242Z,973.42
2016-12-19T08:42:50.238Z,973.46
2016-12-19T08:43:50.231Z,973.44
2016-12-19T08:44:50.226Z,973.41
2016-12-19T08:45:50.223Z,973.33
2016-12-19T08:46:50.222Z,973.35
2016-12-19T08:47:50.214Z,973.45
2016-12-19T08:48:50.210Z,973.36
2016-12-19T08:49:50.202Z,973.41
2016-12-19T08:50:50.202Z,973.42
2016-12-19T08:51:50.193Z,973.34
2016-12-19T08:52:50.193Z,973.37
2016-12-19T08:53:50.189Z,973.4
2016-12-19T08:54:50.181Z,973.31
2016-12-19T08:55:50.177Z,973.34
2016-12-19T08:56:50.169Z,973.35
2016-12-19T08:57:50.165Z,973.3
2016-12-19T08:58:50.161Z,973.25
2016-12-19T08:59:50.160Z,973.3
2016-12-19T09:00:50.156Z,973.27
2016-12-19T09:01:50.152Z,973.33
2016-12-19T09:02:50.148Z,973.38
2016-12-19T09:03:50.144Z,973.33
2016-12-19T09:04:50.140Z,973.36
2016-12-19T09:05:50.128Z,973.31
2016-12-19T09:06:50.123Z,973.38
2016-12-19T09:07:50.119Z,973.4
2016-12-19T09:08:50.119Z,973.41
2016-12-19T09:09:50.115Z,973.36
2016-12-19T09:10:50.111Z,973.38
2016-12-19T09:11:50.107Z,973.39
2016-12-19T09:12:50.103Z,973.47
2016-12-19T09:13:50.099Z,973.45
2016-12-19T09:14:50.095Z,973.49
2016-12-19T09:15:50.090Z,973.51
2016-12-19T09:16:50.082Z,973.53
2016-12-19T09:17:50.082Z,973.56
2016-12-19T09:18:50.078Z,973.57
2016-12-19T09:19:50.074Z,973.64
2016-12-19T09:20:50.070Z,973.74
2016-12-19T09:21:50.066Z,973.69
2016-12-19T09:22:50.062Z,973.67
2016-12-19T09:23:50.050Z,973.64
2016-12-19T09:24:50.050Z,973.69
2016-12-19T09:25:50.043Z,973.72
2016-12-19T09:26:50.042Z,973.67
2016-12-19T09:27:50.035Z,973.69
2016-12-19T09:28:50.035Z,973.66
2016-12-19T09:29:50.031Z,973.76
2016-12-19T09:30:50.060Z,973.7
2016-12-19T09:31:50.019Z,973.77
2016-12-19T09:32:50.017Z,973.71
2016-12-19T09:33:50.011Z,973.78
2016-12-19T09:34:50.007Z,973.73
2016-12-19T09:35:50.008Z,973.66
2016-12-19T09:36:50.003Z,973.66
2016-12-19T09:37:49.999Z,973.61
2016-12-19T09:38:49.994Z,973.56
2016-12-19T09:39:49.987Z,973.54
2016-12-19T09:40:49.983Z,973.51
2016-12-19T09:41:49.984Z,973.48
2016-12-19T09:42:49.976Z,973.59
2016-12-19T09:43:49.971Z,973.61
2016-12-19T09:44:49.968Z,973.57
2016-12-19T09:45:49.964Z,973.57
2016-12-19T09:46:49.960Z,973.6
2016-12-19T09:47:49.956Z,973.55
2016-12-19T09:48:49.948Z,973.61
2016-12-19T09:49:49.944Z,973.55
2016-12-19T09:50:49.941Z,973.51
2016-12-19T09:51:49.937Z,973.52
2016-12-19T09:52:49.936Z,973.52
2016-12-19T09:53:49.932Z,973.62
2016-12-19T09:54:49.931Z,973.57
2016-12-19T09:55:49.924Z,973.58
2016-12-19T09:56:49.920Z,973.61
2016-12-19T09:57:49.917Z,973.57
2016-12-19T09:58:49.909Z,973.53
2016-12-19T09:59:49.909Z,973.59
2016-12-19T10:00:49.901Z,973.59
2016-12-19T10:01:49.894Z,973.56
2016-12-19T10:02:49.893Z,973.55
2016-12-19T10:03:49.894Z,973.56
2016-12-19T10:04:49.886Z,973.54
2016-12-19T10:07:00.731Z,973.49
2016-12-19T10:08:00.727Z,973.51
2016-12-19T10:09:00.771Z,973.48
2016-12-19T10:10:00.719Z,973.47
2016-12-19T10:11:00.715Z,973.46
2016-12-19T10:12:00.712Z,973.41
2016-12-19T10:13:00.707Z,973.44
2016-12-19T10:14:00.716Z,973.43
2016-12-19T10:15:00.706Z,973.38
2016-12-19T10:16:00.699Z,973.33
2016-12-19T10:17:00.695Z,973.36
2016-12-19T10:18:00.691Z,973.33
2016-12-19T10:19:00.694Z,973.33
2016-12-19T10:20:00.687Z,973.29
2016-12-19T10:21:00.679Z,973.32
2016-12-19T10:22:00.675Z,973.26
2016-12-19T10:23:00.671Z,973.2
2016-12-19T10:24:00.667Z,973.18
2016-12-19T10:25:00.663Z,973.2
2016-12-19T10:26:00.659Z,973.18
2016-12-19T10:27:00.651Z,973.19
2016-12-19T10:28:00.647Z,973.18
2016-12-19T10:29:00.647Z,973.2
2016-12-19T10:30:00.643Z,973.19
2016-12-19T10:31:00.640Z,973.18
2016-12-19T10:32:00.636Z,973.15
2016-12-19T10:33:00.628Z,973.19
2016-12-19T10:34:00.630Z,973.2
2016-12-19T10:35:00.876Z,973.17
2016-12-19T10:36:00.620Z,973.21
2016-12-19T10:37:00.612Z,973.17
2016-12-19T10:38:00.612Z,973.19
2016-12-19T10:39:00.608Z,973.19
2016-12-19T10:40:00.604Z,973.19
2016-12-19T10:41:00.601Z,973.1
2016-12-19T10:42:00.597Z,973.11
2016-12-19T10:43:00.589Z,973.05
2016-12-19T10:44:00.585Z,973.03
2016-12-19T10:45:00.589Z,973.01
2016-12-19T10:46:00.581Z,972.98
2016-12-19T10:47:00.573Z,972.97
2016-12-19T10:48:00.569Z,972.93
2016-12-19T10:49:00.569Z,972.96
2016-12-19T10:50:00.567Z,972.96
2016-12-19T10:51:00.561Z,972.98
2016-12-19T10:52:00.558Z,972.99
2016-12-19T10:53:00.553Z,972.98
2016-12-19T10:54:00.549Z,973.01
2016-12-19T10:55:00.546Z,973.04
2016-12-19T10:56:00.542Z,973.05
2016-12-19T10:57:00.535Z,973.02
2016-12-19T10:58:00.534Z,973.04
2016-12-19T10:59:00.529Z,973.02
2016-12-19T11:00:00.526Z,972.99
2016-12-19T11:01:00.522Z,972.96
2016-12-19T11:02:00.514Z,972.98
2016-12-19T11:03:00.514Z,973.03
2016-12-19T11:04:00.510Z,973.01
2016-12-19T11:05:00.502Z,972.98
2016-12-19T11:06:00.502Z,973
2016-12-19T11:07:00.498Z,972.97
2016-12-19T11:08:00.494Z,972.94
2016-12-19T11:09:00.486Z,973
2016-12-19T11:10:00.482Z,972.96
2016-12-19T11:11:00.482Z,973.05
2016-12-19T11:12:00.478Z,972.98
2016-12-19T11:13:00.470Z,972.96
2016-12-19T11:14:00.470Z,972.94
2016-12-19T11:15:00.466Z,972.96
2016-12-19T11:16:00.458Z,972.95
2016-12-19T11:17:00.454Z,972.93
2016-12-19T11:18:00.454Z,972.9
2016-12-19T11:19:00.450Z,972.97
2016-12-19T11:20:00.442Z,972.91
2016-12-19T11:21:00.442Z,972.92
2016-12-19T11:22:00.439Z,972.91
2016-12-19T11:23:00.435Z,972.96
2016-12-19T11:24:00.427Z,972.92
2016-12-19T11:25:00.575Z,972.91
2016-12-19T11:26:00.422Z,972.85
2016-12-19T11:27:00.419Z,972.95
2016-12-19T11:28:00.441Z,972.92
2016-12-19T11:29:00.411Z,972.97
2016-12-19T11:30:00.424Z,972.92
2016-12-19T11:31:00.403Z,972.96
2016-12-19T11:32:00.399Z,972.89
2016-12-19T11:33:00.392Z,972.88
2016-12-19T11:34:00.399Z,972.93
2016-12-19T11:35:00.387Z,972.94
2016-12-19T11:36:00.380Z,972.96
2016-12-19T11:37:00.380Z,972.95
2016-12-19T11:38:00.376Z,972.95
2016-12-19T11:39:00.368Z,972.99
2016-12-19T11:40:00.368Z,972.92
2016-12-19T11:41:00.360Z,972.93
2016-12-19T11:42:00.360Z,972.92
2016-12-19T11:43:00.356Z,972.91
2016-12-19T11:44:00.352Z,972.96
2016-12-19T11:45:00.348Z,972.95
2016-12-19T11:46:00.340Z,972.9
2016-12-19T11:47:00.344Z,972.91
2016-12-19T11:48:00.340Z,972.89
2016-12-19T11:49:00.332Z,972.94
2016-12-19T11:50:00.477Z,972.93
2016-12-19T11:51:00.328Z,972.91
2016-12-19T11:52:00.324Z,972.93
2016-12-19T11:53:00.320Z,972.97
2016-12-19T11:54:00.317Z,972.92
2016-12-19T11:55:00.314Z,972.86
2016-12-19T11:56:00.309Z,972.86
2016-12-19T11:57:00.301Z,972.86
2016-12-19T11:58:00.301Z,972.78
2016-12-19T11:59:00.297Z,972.75
2016-12-19T12:00:00.293Z,972.76
2016-12-19T12:01:00.285Z,972.72
2016-12-19T12:02:00.285Z,972.73
2016-12-19T12:03:00.277Z,972.72
2016-12-19T12:04:00.276Z,972.74
2016-12-19T12:05:00.269Z,972.68
2016-12-19T12:06:00.273Z,972.67
2016-12-19T12:07:00.262Z,972.62
2016-12-19T12:08:00.265Z,972.56
2016-12-19T12:09:00.261Z,972.5
2016-12-19T12:10:00.258Z,972.46
2016-12-19T12:11:00.253Z,972.46
2016-12-19T12:12:00.250Z,972.43
2016-12-19T12:13:00.247Z,972.38
2016-12-19T12:14:00.242Z,972.39
2016-12-19T12:15:00.238Z,972.38
2016-12-19T12:16:00.234Z,972.36
2016-12-19T12:17:00.230Z,972.35
2016-12-19T12:18:00.226Z,972.34
2016-12-19T12:19:00.221Z,972.36
2016-12-19T12:20:00.218Z,972.35
2016-12-19T12:21:00.214Z,972.33
2016-12-19T12:22:00.210Z,972.36
2016-12-19T12:23:00.206Z,972.35
2016-12-19T12:24:00.203Z,972.37
2016-12-19T12:25:00.202Z,972.35
2016-12-19T12:26:00.195Z,972.35
2016-12-19T12:27:00.194Z,972.35
2016-12-19T12:28:00.191Z,972.41
2016-12-19T12:29:00.187Z,972.39
2016-12-19T12:30:00.183Z,972.4
2016-12-19T12:31:00.182Z,972.42
2016-12-19T12:32:00.175Z,972.41